Dryden Regional Airport
CYHD : rendu visible

Aérodrome :











RETROUVEZ-NOUS SUR...

 
LOGIN :

S'inscrire | Disclaimer

   EN    FR    IT 

 









Légende :    VFR   VFR Marginal   IFR   IFR Intensif   IFR Très Intensif
Visi : 
Plafond : 
>= 8 km
>= 3000ft
5 à 8 km
1000 à 3000 ft
1500m à 5 km
500 à 1000 ft
800 à 1500m
200 à 500 ft
< 800m
< 200 ft
Symboles :   Orages  Brouillard  Fortes neiges  Fortes précipitations  Vent > 20 kt






- Altitude de l'aérodrome : 1354 ft
- Code IATA : YHD


CYHD - Dryden Regional

DERNIER METAR :
  • 281300Z AUTO 25007KT 9SM CLR M04/M04 A2971 RMK SLP087

METARs EXPIRÉS :
  • 281200Z AUTO 22007KT 9SM CLR M04/M04 A2970 RMK SLP085
  • 281100Z AUTO 22007KT 9SM CLR M03/M04 A2970 RMK SLP083

TAF TAF CYHD
Valide du 28 à 14h jusqu'au 29 à 02h UTC


281340Z 2814/2902 25008KT P6SM SCT240
FM281800 25007KT P6SM BKN100 BKN240
BECMG 2900/2902 09005KT RMK FCST BASED ON AUTO OBS. NXT FCST BY 282000Z
FIR CZWG / Amérique du Nord



MET'MAP, la Météo Aéronautique d'un coup d'oeil ! - Copyright ORBIFLY Décembre 2007 - Disclaimer

ORBIFLY MET'MAP TEAM :

Programmation & Développement : Alexandra Zaïnal
Sur une idée originale de : Baudouin d'Aumeries
Assistance à la programmation : Marc-Olivier Méhu
Soutien technique & logistique : Manuel Goepfert

Contact : metmap@orbifly.com




SOURCES & CREDITS :

   NOAA       Earth
Advisory